sensor_id;sensor_type;location;lat;lon;timestamp;temperature;humidity
55642;DHT22;41509;53.108;6.100;2023-07-31T00:00:47;16.90;99.90
55642;DHT22;41509;53.108;6.100;2023-07-31T00:03:13;16.90;99.90
55642;DHT22;41509;53.108;6.100;2023-07-31T00:05:39;16.90;99.90
55642;DHT22;41509;53.108;6.100;2023-07-31T00:08:05;16.90;99.90
55642;DHT22;41509;53.108;6.100;2023-07-31T00:10:30;16.90;99.90
55642;DHT22;41509;53.108;6.100;2023-07-31T00:12:56;16.90;99.90
55642;DHT22;41509;53.108;6.100;2023-07-31T00:15:21;16.90;99.90
55642;DHT22;41509;53.108;6.100;2023-07-31T00:17:47;16.90;99.90
55642;DHT22;41509;53.108;6.100;2023-07-31T00:20:13;16.90;99.90
55642;DHT22;41509;53.108;6.100;2023-07-31T00:22:39;16.90;99.90
55642;DHT22;41509;53.108;6.100;2023-07-31T00:25:04;16.90;99.90
55642;DHT22;41509;53.108;6.100;2023-07-31T00:27:32;16.90;99.90
55642;DHT22;41509;53.108;6.100;2023-07-31T00:29:58;16.80;99.90
55642;DHT22;41509;53.108;6.100;2023-07-31T00:32:23;16.90;99.90
55642;DHT22;41509;53.108;6.100;2023-07-31T00:34:49;16.80;99.90
55642;DHT22;41509;53.108;6.100;2023-07-31T00:37:15;16.80;99.90
55642;DHT22;41509;53.108;6.100;2023-07-31T00:39:44;16.80;99.90
55642;DHT22;41509;53.108;6.100;2023-07-31T00:42:09;16.80;99.90
55642;DHT22;41509;53.108;6.100;2023-07-31T00:44:35;16.80;99.90
55642;DHT22;41509;53.108;6.100;2023-07-31T00:47:01;16.80;99.90
55642;DHT22;41509;53.108;6.100;2023-07-31T00:49:27;16.80;99.90
55642;DHT22;41509;53.108;6.100;2023-07-31T00:51:55;16.80;99.90
55642;DHT22;41509;53.108;6.100;2023-07-31T00:54:23;16.80;99.90
55642;DHT22;41509;53.108;6.100;2023-07-31T00:56:49;16.80;99.90
55642;DHT22;41509;53.108;6.100;2023-07-31T00:59:18;16.70;99.90
55642;DHT22;41509;53.108;6.100;2023-07-31T01:01:44;16.70;99.90
55642;DHT22;41509;53.108;6.100;2023-07-31T01:04:11;16.80;99.90
55642;DHT22;41509;53.108;6.100;2023-07-31T01:07:05;16.80;99.90
55642;DHT22;41509;53.108;6.100;2023-07-31T01:09:43;16.80;99.90
55642;DHT22;41509;53.108;6.100;2023-07-31T01:12:14;16.80;99.90
55642;DHT22;41509;53.108;6.100;2023-07-31T01:14:40;16.80;99.90
55642;DHT22;41509;53.108;6.100;2023-07-31T01:17:05;16.80;99.90
55642;DHT22;41509;53.108;6.100;2023-07-31T01:19:31;16.70;99.90
55642;DHT22;41509;53.108;6.100;2023-07-31T01:25:20;16.70;99.90
55642;DHT22;41509;53.108;6.100;2023-07-31T01:28:04;16.70;99.90
55642;DHT22;41509;53.108;6.100;2023-07-31T01:30:47;16.70;99.90
55642;DHT22;41509;53.108;6.100;2023-07-31T01:33:15;16.70;99.90
55642;DHT22;41509;53.108;6.100;2023-07-31T01:35:44;16.70;99.90
55642;DHT22;41509;53.108;6.100;2023-07-31T01:38:10;16.70;99.90
55642;DHT22;41509;53.108;6.100;2023-07-31T01:40:36;16.70;99.90
55642;DHT22;41509;53.108;6.100;2023-07-31T01:43:02;16.70;99.90
55642;DHT22;41509;53.108;6.100;2023-07-31T01:45:27;16.70;99.90
55642;DHT22;41509;53.108;6.100;2023-07-31T01:47:53;16.60;99.90
55642;DHT22;41509;53.108;6.100;2023-07-31T01:50:19;16.70;99.90
55642;DHT22;41509;53.108;6.100;2023-07-31T01:52:44;16.70;99.90
55642;DHT22;41509;53.108;6.100;2023-07-31T01:55:12;16.60;99.90
55642;DHT22;41509;53.108;6.100;2023-07-31T01:57:38;16.60;99.90
55642;DHT22;41509;53.108;6.100;2023-07-31T02:00:04;16.60;99.90
55642;DHT22;41509;53.108;6.100;2023-07-31T02:02:30;16.70;99.90
55642;DHT22;41509;53.108;6.100;2023-07-31T02:04:58;16.70;99.90
55642;DHT22;41509;53.108;6.100;2023-07-31T02:07:24;16.70;99.90
55642;DHT22;41509;53.108;6.100;2023-07-31T02:09:49;16.60;99.90
55642;DHT22;41509;53.108;6.100;2023-07-31T02:12:15;16.70;99.90
55642;DHT22;41509;53.108;6.100;2023-07-31T02:14:41;16.70;99.90
55642;DHT22;41509;53.108;6.100;2023-07-31T02:17:06;16.70;99.90
55642;DHT22;41509;53.108;6.100;2023-07-31T02:19:32;16.70;99.90
55642;DHT22;41509;53.108;6.100;2023-07-31T02:21:58;16.70;99.90
55642;DHT22;41509;53.108;6.100;2023-07-31T02:24:25;16.60;99.90
55642;DHT22;41509;53.108;6.100;2023-07-31T02:26:51;16.60;99.90
55642;DHT22;41509;53.108;6.100;2023-07-31T02:29:16;16.70;99.90
55642;DHT22;41509;53.108;6.100;2023-07-31T02:31:42;16.70;99.90
55642;DHT22;41509;53.108;6.100;2023-07-31T02:34:07;16.60;99.90
55642;DHT22;41509;53.108;6.100;2023-07-31T02:36:33;16.60;99.90
55642;DHT22;41509;53.108;6.100;2023-07-31T02:38:59;16.60;99.90
55642;DHT22;41509;53.108;6.100;2023-07-31T02:41:24;16.50;99.90
55642;DHT22;41509;53.108;6.100;2023-07-31T02:43:50;16.50;99.90
55642;DHT22;41509;53.108;6.100;2023-07-31T02:46:16;16.50;99.90
55642;DHT22;41509;53.108;6.100;2023-07-31T02:48:41;16.50;99.90
55642;DHT22;41509;53.108;6.100;2023-07-31T02:51:07;16.50;99.90
55642;DHT22;41509;53.108;6.100;2023-07-31T02:53:33;16.50;99.90
55642;DHT22;41509;53.108;6.100;2023-07-31T02:56:03;16.50;99.90
55642;DHT22;41509;53.108;6.100;2023-07-31T02:58:29;16.50;99.90
55642;DHT22;41509;53.108;6.100;2023-07-31T03:00:55;16.40;99.90
55642;DHT22;41509;53.108;6.100;2023-07-31T03:03:20;16.40;99.90
55642;DHT22;41509;53.108;6.100;2023-07-31T03:05:49;16.40;99.90
55642;DHT22;41509;53.108;6.100;2023-07-31T03:08:15;16.40;99.90
55642;DHT22;41509;53.108;6.100;2023-07-31T03:10:41;16.40;99.90
55642;DHT22;41509;53.108;6.100;2023-07-31T03:13:06;16.50;99.90
55642;DHT22;41509;53.108;6.100;2023-07-31T03:15:32;16.40;99.90
55642;DHT22;41509;53.108;6.100;2023-07-31T03:17:58;16.40;99.90
55642;DHT22;41509;53.108;6.100;2023-07-31T03:20:24;16.40;99.90
55642;DHT22;41509;53.108;6.100;2023-07-31T03:22:49;16.40;99.90
55642;DHT22;41509;53.108;6.100;2023-07-31T03:25:15;16.40;99.90
55642;DHT22;41509;53.108;6.100;2023-07-31T03:27:41;16.40;99.90
55642;DHT22;41509;53.108;6.100;2023-07-31T03:30:07;16.30;99.90
55642;DHT22;41509;53.108;6.100;2023-07-31T03:32:32;16.30;99.90
55642;DHT22;41509;53.108;6.100;2023-07-31T03:34:58;16.30;99.90
55642;DHT22;41509;53.108;6.100;2023-07-31T03:37:24;16.30;99.90
55642;DHT22;41509;53.108;6.100;2023-07-31T03:39:50;16.20;99.90
55642;DHT22;41509;53.108;6.100;2023-07-31T03:42:15;16.20;99.90
55642;DHT22;41509;53.108;6.100;2023-07-31T03:44:41;16.20;99.90
55642;DHT22;41509;53.108;6.100;2023-07-31T03:47:06;16.30;99.90
55642;DHT22;41509;53.108;6.100;2023-07-31T03:49:32;16.30;99.90
55642;DHT22;41509;53.108;6.100;2023-07-31T03:51:58;16.30;99.90
55642;DHT22;41509;53.108;6.100;2023-07-31T03:54:23;16.30;99.90
55642;DHT22;41509;53.108;6.100;2023-07-31T03:56:49;16.20;99.90
55642;DHT22;41509;53.108;6.100;2023-07-31T03:59:15;16.30;99.90
55642;DHT22;41509;53.108;6.100;2023-07-31T04:01:41;16.20;99.90
55642;DHT22;41509;53.108;6.100;2023-07-31T04:04:06;16.30;99.90
55642;DHT22;41509;53.108;6.100;2023-07-31T04:06:32;16.20;99.90
55642;DHT22;41509;53.108;6.100;2023-07-31T04:09:04;16.20;99.90
55642;DHT22;41509;53.108;6.100;2023-07-31T04:11:30;16.20;99.90
55642;DHT22;41509;53.108;6.100;2023-07-31T04:13:55;16.20;99.90
55642;DHT22;41509;53.108;6.100;2023-07-31T04:16:21;16.20;99.90
55642;DHT22;41509;53.108;6.100;2023-07-31T04:18:46;16.30;99.90
55642;DHT22;41509;53.108;6.100;2023-07-31T04:21:12;16.30;99.90
55642;DHT22;41509;53.108;6.100;2023-07-31T04:23:38;16.30;99.90
55642;DHT22;41509;53.108;6.100;2023-07-31T04:26:04;16.20;99.90
55642;DHT22;41509;53.108;6.100;2023-07-31T04:28:29;16.30;99.90
55642;DHT22;41509;53.108;6.100;2023-07-31T04:30:57;16.30;99.90
55642;DHT22;41509;53.108;6.100;2023-07-31T04:33:22;16.30;99.90
55642;DHT22;41509;53.108;6.100;2023-07-31T04:35:52;16.20;99.90
55642;DHT22;41509;53.108;6.100;2023-07-31T04:38:19;16.30;99.90
55642;DHT22;41509;53.108;6.100;2023-07-31T04:40:45;16.20;99.90
55642;DHT22;41509;53.108;6.100;2023-07-31T04:43:10;16.20;99.90
55642;DHT22;41509;53.108;6.100;2023-07-31T04:45:36;16.20;99.90
55642;DHT22;41509;53.108;6.100;2023-07-31T04:48:02;16.20;99.90
55642;DHT22;41509;53.108;6.100;2023-07-31T04:50:27;16.20;99.90
55642;DHT22;41509;53.108;6.100;2023-07-31T04:52:55;16.20;99.90
55642;DHT22;41509;53.108;6.100;2023-07-31T04:55:23;16.20;99.90
55642;DHT22;41509;53.108;6.100;2023-07-31T04:57:49;16.20;99.90
55642;DHT22;41509;53.108;6.100;2023-07-31T05:00:15;16.30;99.90
55642;DHT22;41509;53.108;6.100;2023-07-31T05:02:41;16.30;99.90
55642;DHT22;41509;53.108;6.100;2023-07-31T05:05:06;16.30;99.90
55642;DHT22;41509;53.108;6.100;2023-07-31T05:07:32;16.30;99.90
55642;DHT22;41509;53.108;6.100;2023-07-31T05:09:58;16.30;99.90
55642;DHT22;41509;53.108;6.100;2023-07-31T05:12:23;16.40;99.90
55642;DHT22;41509;53.108;6.100;2023-07-31T05:14:49;16.30;99.90
55642;DHT22;41509;53.108;6.100;2023-07-31T05:17:15;16.30;99.90
55642;DHT22;41509;53.108;6.100;2023-07-31T05:19:41;16.40;99.90
55642;DHT22;41509;53.108;6.100;2023-07-31T05:22:09;16.40;99.90
55642;DHT22;41509;53.108;6.100;2023-07-31T05:24:35;16.40;99.90
55642;DHT22;41509;53.108;6.100;2023-07-31T05:27:00;16.40;99.90
55642;DHT22;41509;53.108;6.100;2023-07-31T05:29:26;16.40;99.90
55642;DHT22;41509;53.108;6.100;2023-07-31T05:31:52;16.40;99.90
55642;DHT22;41509;53.108;6.100;2023-07-31T05:34:17;16.50;99.90
55642;DHT22;41509;53.108;6.100;2023-07-31T05:36:43;16.40;99.90
55642;DHT22;41509;53.108;6.100;2023-07-31T05:39:09;16.50;99.90
55642;DHT22;41509;53.108;6.100;2023-07-31T05:41:37;16.50;99.90
55642;DHT22;41509;53.108;6.100;2023-07-31T05:44:03;16.50;99.90
55642;DHT22;41509;53.108;6.100;2023-07-31T05:46:28;16.50;99.90
55642;DHT22;41509;53.108;6.100;2023-07-31T05:48:54;16.50;99.90
55642;DHT22;41509;53.108;6.100;2023-07-31T05:51:20;16.50;99.90
55642;DHT22;41509;53.108;6.100;2023-07-31T05:53:45;16.50;99.90
55642;DHT22;41509;53.108;6.100;2023-07-31T05:56:11;16.50;99.90
55642;DHT22;41509;53.108;6.100;2023-07-31T05:58:37;16.60;99.90
55642;DHT22;41509;53.108;6.100;2023-07-31T06:01:05;16.60;99.90
55642;DHT22;41509;53.108;6.100;2023-07-31T06:03:31;16.70;99.90
55642;DHT22;41509;53.108;6.100;2023-07-31T06:05:57;16.60;99.90
55642;DHT22;41509;53.108;6.100;2023-07-31T06:08:22;16.70;99.90
55642;DHT22;41509;53.108;6.100;2023-07-31T06:10:48;16.70;99.90
55642;DHT22;41509;53.108;6.100;2023-07-31T06:13:14;16.80;99.90
55642;DHT22;41509;53.108;6.100;2023-07-31T06:15:39;16.80;99.90
55642;DHT22;41509;53.108;6.100;2023-07-31T06:18:05;16.80;99.90
55642;DHT22;41509;53.108;6.100;2023-07-31T06:20:33;16.80;99.90
55642;DHT22;41509;53.108;6.100;2023-07-31T06:22:59;16.80;99.90
55642;DHT22;41509;53.108;6.100;2023-07-31T06:25:25;16.90;99.90
55642;DHT22;41509;53.108;6.100;2023-07-31T06:27:51;16.90;99.90
55642;DHT22;41509;53.108;6.100;2023-07-31T06:30:16;17.00;99.90
55642;DHT22;41509;53.108;6.100;2023-07-31T06:32:42;17.00;99.90
55642;DHT22;41509;53.108;6.100;2023-07-31T06:35:08;17.00;99.90
55642;DHT22;41509;53.108;6.100;2023-07-31T06:37:34;17.00;99.90
55642;DHT22;41509;53.108;6.100;2023-07-31T06:40:00;17.00;99.90
55642;DHT22;41509;53.108;6.100;2023-07-31T06:42:25;17.10;99.90
55642;DHT22;41509;53.108;6.100;2023-07-31T06:44:51;17.10;99.90
55642;DHT22;41509;53.108;6.100;2023-07-31T06:47:17;17.10;99.90
55642;DHT22;41509;53.108;6.100;2023-07-31T06:49:45;17.00;99.90
55642;DHT22;41509;53.108;6.100;2023-07-31T06:52:11;17.10;99.90
55642;DHT22;41509;53.108;6.100;2023-07-31T06:54:39;17.10;99.90
55642;DHT22;41509;53.108;6.100;2023-07-31T06:57:07;17.10;99.90
55642;DHT22;41509;53.108;6.100;2023-07-31T06:59:33;17.00;99.90
55642;DHT22;41509;53.108;6.100;2023-07-31T07:01:59;17.00;99.90
55642;DHT22;41509;53.108;6.100;2023-07-31T07:04:24;17.00;99.90
55642;DHT22;41509;53.108;6.100;2023-07-31T07:06:50;17.10;99.90
55642;DHT22;41509;53.108;6.100;2023-07-31T07:09:16;17.10;99.90
55642;DHT22;41509;53.108;6.100;2023-07-31T07:11:41;17.10;99.90
55642;DHT22;41509;53.108;6.100;2023-07-31T07:14:07;17.10;99.90
55642;DHT22;41509;53.108;6.100;2023-07-31T07:16:33;17.10;99.90
55642;DHT22;41509;53.108;6.100;2023-07-31T07:18:58;17.10;99.90
55642;DHT22;41509;53.108;6.100;2023-07-31T07:21:24;17.10;99.90
55642;DHT22;41509;53.108;6.100;2023-07-31T07:23:50;17.10;99.90
55642;DHT22;41509;53.108;6.100;2023-07-31T07:26:16;17.20;99.90
55642;DHT22;41509;53.108;6.100;2023-07-31T07:28:41;17.20;99.90
55642;DHT22;41509;53.108;6.100;2023-07-31T07:31:07;17.20;99.90
55642;DHT22;41509;53.108;6.100;2023-07-31T07:33:32;17.20;99.90
55642;DHT22;41509;53.108;6.100;2023-07-31T07:36:01;17.30;99.90
55642;DHT22;41509;53.108;6.100;2023-07-31T07:38:27;17.30;99.90
55642;DHT22;41509;53.108;6.100;2023-07-31T07:40:54;17.30;99.90
55642;DHT22;41509;53.108;6.100;2023-07-31T07:43:19;17.30;99.90
55642;DHT22;41509;53.108;6.100;2023-07-31T07:45:45;17.30;99.90
55642;DHT22;41509;53.108;6.100;2023-07-31T07:48:10;17.30;99.90
55642;DHT22;41509;53.108;6.100;2023-07-31T07:50:38;17.30;99.90
55642;DHT22;41509;53.108;6.100;2023-07-31T07:53:04;17.30;99.90
55642;DHT22;41509;53.108;6.100;2023-07-31T07:55:29;17.30;99.90
55642;DHT22;41509;53.108;6.100;2023-07-31T07:57:55;17.30;99.90
55642;DHT22;41509;53.108;6.100;2023-07-31T08:00:21;17.20;99.90
55642;DHT22;41509;53.108;6.100;2023-07-31T08:02:46;17.20;99.90
55642;DHT22;41509;53.108;6.100;2023-07-31T08:05:12;17.20;99.90
55642;DHT22;41509;53.108;6.100;2023-07-31T08:07:38;17.20;99.90
55642;DHT22;41509;53.108;6.100;2023-07-31T08:10:04;17.20;99.90
55642;DHT22;41509;53.108;6.100;2023-07-31T08:12:30;17.20;99.90
55642;DHT22;41509;53.108;6.100;2023-07-31T08:14:55;17.20;99.90
55642;DHT22;41509;53.108;6.100;2023-07-31T08:17:21;17.20;99.90
55642;DHT22;41509;53.108;6.100;2023-07-31T08:19:47;17.20;99.90
55642;DHT22;41509;53.108;6.100;2023-07-31T08:22:12;17.20;99.90
55642;DHT22;41509;53.108;6.100;2023-07-31T08:24:38;17.20;99.90
55642;DHT22;41509;53.108;6.100;2023-07-31T08:27:06;17.20;99.90
55642;DHT22;41509;53.108;6.100;2023-07-31T08:29:31;17.30;99.90
55642;DHT22;41509;53.108;6.100;2023-07-31T08:31:57;17.30;99.90
55642;DHT22;41509;53.108;6.100;2023-07-31T08:34:23;17.20;99.90
55642;DHT22;41509;53.108;6.100;2023-07-31T08:36:48;17.30;99.90
55642;DHT22;41509;53.108;6.100;2023-07-31T08:39:14;17.30;99.90
55642;DHT22;41509;53.108;6.100;2023-07-31T08:41:40;17.30;99.90
55642;DHT22;41509;53.108;6.100;2023-07-31T08:44:07;17.30;99.90
55642;DHT22;41509;53.108;6.100;2023-07-31T08:46:33;17.30;99.90
55642;DHT22;41509;53.108;6.100;2023-07-31T08:48:59;17.30;99.90
55642;DHT22;41509;53.108;6.100;2023-07-31T08:51:26;17.30;99.90
55642;DHT22;41509;53.108;6.100;2023-07-31T08:53:52;17.30;99.90
55642;DHT22;41509;53.108;6.100;2023-07-31T08:56:18;17.40;99.90
55642;DHT22;41509;53.108;6.100;2023-07-31T08:58:44;17.40;99.90
55642;DHT22;41509;53.108;6.100;2023-07-31T09:01:10;17.30;99.90
55642;DHT22;41509;53.108;6.100;2023-07-31T09:03:36;17.40;99.90
55642;DHT22;41509;53.108;6.100;2023-07-31T09:06:04;17.40;99.90
55642;DHT22;41509;53.108;6.100;2023-07-31T09:08:32;17.40;99.90
55642;DHT22;41509;53.108;6.100;2023-07-31T09:11:02;17.50;99.90
55642;DHT22;41509;53.108;6.100;2023-07-31T09:13:30;17.50;99.90
55642;DHT22;41509;53.108;6.100;2023-07-31T09:15:56;17.50;99.90
55642;DHT22;41509;53.108;6.100;2023-07-31T09:18:22;17.50;99.90
55642;DHT22;41509;53.108;6.100;2023-07-31T09:21:06;17.60;99.90
55642;DHT22;41509;53.108;6.100;2023-07-31T09:23:46;17.60;99.90
55642;DHT22;41509;53.108;6.100;2023-07-31T09:26:32;17.70;99.90
55642;DHT22;41509;53.108;6.100;2023-07-31T09:28:59;17.70;99.90
55642;DHT22;41509;53.108;6.100;2023-07-31T09:31:42;17.70;99.90
55642;DHT22;41509;53.108;6.100;2023-07-31T09:34:08;17.80;99.90
55642;DHT22;41509;53.108;6.100;2023-07-31T09:36:48;17.80;99.90
55642;DHT22;41509;53.108;6.100;2023-07-31T09:39:16;17.90;99.90
55642;DHT22;41509;53.108;6.100;2023-07-31T09:41:44;18.00;99.90
55642;DHT22;41509;53.108;6.100;2023-07-31T09:44:10;18.00;99.90
55642;DHT22;41509;53.108;6.100;2023-07-31T09:46:36;18.00;99.90
55642;DHT22;41509;53.108;6.100;2023-07-31T09:49:10;18.10;99.90
55642;DHT22;41509;53.108;6.100;2023-07-31T09:51:41;18.10;99.90
55642;DHT22;41509;53.108;6.100;2023-07-31T09:54:16;18.10;99.90
55642;DHT22;41509;53.108;6.100;2023-07-31T09:56:47;18.10;99.90
55642;DHT22;41509;53.108;6.100;2023-07-31T09:59:23;18.10;99.90
55642;DHT22;41509;53.108;6.100;2023-07-31T10:01:49;18.10;99.90
55642;DHT22;41509;53.108;6.100;2023-07-31T10:04:16;18.10;99.90
55642;DHT22;41509;53.108;6.100;2023-07-31T10:06:46;18.20;99.90
55642;DHT22;41509;53.108;6.100;2023-07-31T10:09:15;18.20;99.90
55642;DHT22;41509;53.108;6.100;2023-07-31T10:11:53;18.20;99.90
55642;DHT22;41509;53.108;6.100;2023-07-31T10:14:21;18.30;99.90
55642;DHT22;41509;53.108;6.100;2023-07-31T10:16:49;18.30;99.90
55642;DHT22;41509;53.108;6.100;2023-07-31T10:19:17;18.20;99.90
55642;DHT22;41509;53.108;6.100;2023-07-31T10:21:43;18.20;99.90
55642;DHT22;41509;53.108;6.100;2023-07-31T10:24:09;18.30;99.90
55642;DHT22;41509;53.108;6.100;2023-07-31T10:26:37;18.20;99.90
55642;DHT22;41509;53.108;6.100;2023-07-31T10:29:05;18.20;99.90
55642;DHT22;41509;53.108;6.100;2023-07-31T10:31:32;18.30;99.90
55642;DHT22;41509;53.108;6.100;2023-07-31T10:33:58;18.30;99.90
55642;DHT22;41509;53.108;6.100;2023-07-31T10:36:24;18.30;99.90
55642;DHT22;41509;53.108;6.100;2023-07-31T10:38:51;18.40;99.90
55642;DHT22;41509;53.108;6.100;2023-07-31T10:41:17;18.40;99.90
55642;DHT22;41509;53.108;6.100;2023-07-31T10:43:43;18.40;99.90
55642;DHT22;41509;53.108;6.100;2023-07-31T10:46:12;18.40;99.90
55642;DHT22;41509;53.108;6.100;2023-07-31T10:48:39;18.40;99.90
55642;DHT22;41509;53.108;6.100;2023-07-31T10:51:11;18.30;99.90
55642;DHT22;41509;53.108;6.100;2023-07-31T10:53:39;18.30;99.90
55642;DHT22;41509;53.108;6.100;2023-07-31T10:56:07;18.30;99.90
55642;DHT22;41509;53.108;6.100;2023-07-31T10:58:34;18.30;99.90
55642;DHT22;41509;53.108;6.100;2023-07-31T11:01:02;18.40;99.90
55642;DHT22;41509;53.108;6.100;2023-07-31T11:03:45;18.50;99.90
55642;DHT22;41509;53.108;6.100;2023-07-31T11:06:13;18.60;99.90
55642;DHT22;41509;53.108;6.100;2023-07-31T11:08:44;18.60;99.90
55642;DHT22;41509;53.108;6.100;2023-07-31T11:11:12;18.60;99.90
55642;DHT22;41509;53.108;6.100;2023-07-31T11:13:49;18.70;99.90
55642;DHT22;41509;53.108;6.100;2023-07-31T11:16:17;18.70;99.90
55642;DHT22;41509;53.108;6.100;2023-07-31T11:18:44;18.70;99.90
55642;DHT22;41509;53.108;6.100;2023-07-31T11:23:41;18.80;99.90
55642;DHT22;41509;53.108;6.100;2023-07-31T11:26:07;18.80;99.90
55642;DHT22;41509;53.108;6.100;2023-07-31T11:28:34;18.80;99.90
55642;DHT22;41509;53.108;6.100;2023-07-31T11:31:00;18.70;99.90
55642;DHT22;41509;53.108;6.100;2023-07-31T11:33:26;18.70;99.90
55642;DHT22;41509;53.108;6.100;2023-07-31T11:35:52;18.70;99.90
55642;DHT22;41509;53.108;6.100;2023-07-31T11:38:29;18.60;99.90
55642;DHT22;41509;53.108;6.100;2023-07-31T11:40:57;18.60;99.90
55642;DHT22;41509;53.108;6.100;2023-07-31T11:43:23;18.60;99.90
55642;DHT22;41509;53.108;6.100;2023-07-31T11:45:55;18.60;99.90
55642;DHT22;41509;53.108;6.100;2023-07-31T11:48:26;18.70;99.90
55642;DHT22;41509;53.108;6.100;2023-07-31T11:50:58;18.80;99.90
55642;DHT22;41509;53.108;6.100;2023-07-31T11:53:29;18.80;99.90
55642;DHT22;41509;53.108;6.100;2023-07-31T11:55:58;18.90;99.90
55642;DHT22;41509;53.108;6.100;2023-07-31T11:58:24;18.90;99.90
55642;DHT22;41509;53.108;6.100;2023-07-31T12:00:51;18.90;99.90
55642;DHT22;41509;53.108;6.100;2023-07-31T12:03:18;18.80;99.90
55642;DHT22;41509;53.108;6.100;2023-07-31T12:05:44;18.90;99.90
55642;DHT22;41509;53.108;6.100;2023-07-31T12:08:10;18.80;99.90
55642;DHT22;41509;53.108;6.100;2023-07-31T12:10:37;18.70;99.90
55642;DHT22;41509;53.108;6.100;2023-07-31T12:13:08;18.70;99.90
55642;DHT22;41509;53.108;6.100;2023-07-31T12:15:43;18.70;99.90
55642;DHT22;41509;53.108;6.100;2023-07-31T12:18:11;18.80;99.90
55642;DHT22;41509;53.108;6.100;2023-07-31T12:20:44;18.80;99.90
55642;DHT22;41509;53.108;6.100;2023-07-31T12:23:18;18.80;99.90
55642;DHT22;41509;53.108;6.100;2023-07-31T12:25:47;18.80;99.90
55642;DHT22;41509;53.108;6.100;2023-07-31T12:28:12;18.90;99.90
55642;DHT22;41509;53.108;6.100;2023-07-31T12:30:40;18.90;99.90
55642;DHT22;41509;53.108;6.100;2023-07-31T12:33:14;18.90;99.90
55642;DHT22;41509;53.108;6.100;2023-07-31T12:35:47;19.00;99.90
55642;DHT22;41509;53.108;6.100;2023-07-31T12:38:13;19.00;99.90
55642;DHT22;41509;53.108;6.100;2023-07-31T12:40:41;19.00;99.90
55642;DHT22;41509;53.108;6.100;2023-07-31T12:43:07;19.00;99.90
55642;DHT22;41509;53.108;6.100;2023-07-31T12:45:33;18.90;99.90
55642;DHT22;41509;53.108;6.100;2023-07-31T12:48:00;18.90;99.90
55642;DHT22;41509;53.108;6.100;2023-07-31T12:50:26;18.90;99.90
55642;DHT22;41509;53.108;6.100;2023-07-31T12:52:53;18.90;99.90
55642;DHT22;41509;53.108;6.100;2023-07-31T12:55:19;18.90;99.90
55642;DHT22;41509;53.108;6.100;2023-07-31T12:57:45;18.90;99.90
55642;DHT22;41509;53.108;6.100;2023-07-31T13:00:11;18.90;99.90
55642;DHT22;41509;53.108;6.100;2023-07-31T13:02:38;19.00;99.90
55642;DHT22;41509;53.108;6.100;2023-07-31T13:05:04;19.00;99.90
55642;DHT22;41509;53.108;6.100;2023-07-31T13:07:30;19.10;99.90
55642;DHT22;41509;53.108;6.100;2023-07-31T13:09:55;19.10;99.90
55642;DHT22;41509;53.108;6.100;2023-07-31T13:12:21;19.10;99.90
55642;DHT22;41509;53.108;6.100;2023-07-31T13:14:46;19.10;99.90
55642;DHT22;41509;53.108;6.100;2023-07-31T13:17:12;19.10;99.90
55642;DHT22;41509;53.108;6.100;2023-07-31T13:19:38;19.10;99.90
55642;DHT22;41509;53.108;6.100;2023-07-31T13:22:03;19.10;99.90
55642;DHT22;41509;53.108;6.100;2023-07-31T13:24:29;19.10;99.90
55642;DHT22;41509;53.108;6.100;2023-07-31T13:26:56;19.20;99.90
55642;DHT22;41509;53.108;6.100;2023-07-31T13:29:22;19.20;99.90
55642;DHT22;41509;53.108;6.100;2023-07-31T13:31:49;19.10;99.90
55642;DHT22;41509;53.108;6.100;2023-07-31T13:34:14;19.10;99.90
55642;DHT22;41509;53.108;6.100;2023-07-31T13:36:40;19.10;99.90
55642;DHT22;41509;53.108;6.100;2023-07-31T13:39:07;19.20;99.90
55642;DHT22;41509;53.108;6.100;2023-07-31T13:41:32;19.20;99.90
55642;DHT22;41509;53.108;6.100;2023-07-31T13:43:58;19.30;99.90
55642;DHT22;41509;53.108;6.100;2023-07-31T13:46:24;19.30;99.90
55642;DHT22;41509;53.108;6.100;2023-07-31T13:48:51;19.30;99.90
55642;DHT22;41509;53.108;6.100;2023-07-31T13:51:16;19.20;99.90
55642;DHT22;41509;53.108;6.100;2023-07-31T13:53:42;19.20;99.90
55642;DHT22;41509;53.108;6.100;2023-07-31T13:56:08;19.20;99.90
55642;DHT22;41509;53.108;6.100;2023-07-31T13:58:33;19.10;99.90
55642;DHT22;41509;53.108;6.100;2023-07-31T14:00:59;19.10;99.90
55642;DHT22;41509;53.108;6.100;2023-07-31T14:03:25;19.10;99.90
55642;DHT22;41509;53.108;6.100;2023-07-31T14:05:54;19.10;99.90
55642;DHT22;41509;53.108;6.100;2023-07-31T14:08:21;19.10;99.90
55642;DHT22;41509;53.108;6.100;2023-07-31T14:10:47;19.00;99.90
55642;DHT22;41509;53.108;6.100;2023-07-31T14:13:12;19.10;99.90
55642;DHT22;41509;53.108;6.100;2023-07-31T14:15:41;19.10;99.90
55642;DHT22;41509;53.108;6.100;2023-07-31T14:18:09;19.10;99.90
55642;DHT22;41509;53.108;6.100;2023-07-31T14:20:37;19.10;99.90
55642;DHT22;41509;53.108;6.100;2023-07-31T14:23:03;19.10;99.90
55642;DHT22;41509;53.108;6.100;2023-07-31T14:25:29;19.10;99.90
55642;DHT22;41509;53.108;6.100;2023-07-31T14:27:55;19.10;99.90
55642;DHT22;41509;53.108;6.100;2023-07-31T14:30:20;19.10;99.90
55642;DHT22;41509;53.108;6.100;2023-07-31T14:32:46;19.10;99.90
55642;DHT22;41509;53.108;6.100;2023-07-31T14:35:12;19.10;99.90
55642;DHT22;41509;53.108;6.100;2023-07-31T14:37:39;19.10;99.90
55642;DHT22;41509;53.108;6.100;2023-07-31T14:40:06;19.10;99.90
55642;DHT22;41509;53.108;6.100;2023-07-31T14:42:41;19.10;99.90
55642;DHT22;41509;53.108;6.100;2023-07-31T14:45:07;19.10;99.90
55642;DHT22;41509;53.108;6.100;2023-07-31T14:47:34;19.10;99.90
55642;DHT22;41509;53.108;6.100;2023-07-31T14:50:00;19.10;99.90
55642;DHT22;41509;53.108;6.100;2023-07-31T14:52:26;19.00;99.90
55642;DHT22;41509;53.108;6.100;2023-07-31T14:54:52;19.00;99.90
55642;DHT22;41509;53.108;6.100;2023-07-31T14:57:18;19.00;99.90
55642;DHT22;41509;53.108;6.100;2023-07-31T14:59:44;19.00;99.90
55642;DHT22;41509;53.108;6.100;2023-07-31T15:02:10;19.00;99.90
55642;DHT22;41509;53.108;6.100;2023-07-31T15:04:36;18.90;99.90
55642;DHT22;41509;53.108;6.100;2023-07-31T15:07:02;18.90;99.90
55642;DHT22;41509;53.108;6.100;2023-07-31T15:09:27;18.90;99.90
55642;DHT22;41509;53.108;6.100;2023-07-31T15:11:53;18.90;99.90
55642;DHT22;41509;53.108;6.100;2023-07-31T15:14:19;18.90;99.90
55642;DHT22;41509;53.108;6.100;2023-07-31T15:16:45;18.90;99.90
55642;DHT22;41509;53.108;6.100;2023-07-31T15:19:11;18.90;99.90
55642;DHT22;41509;53.108;6.100;2023-07-31T15:21:37;18.90;99.90
55642;DHT22;41509;53.108;6.100;2023-07-31T15:24:03;18.90;99.90
55642;DHT22;41509;53.108;6.100;2023-07-31T15:26:29;18.90;99.90
55642;DHT22;41509;53.108;6.100;2023-07-31T15:29:06;18.90;99.90
55642;DHT22;41509;53.108;6.100;2023-07-31T15:31:38;18.90;99.90
55642;DHT22;41509;53.108;6.100;2023-07-31T15:34:04;18.90;99.90